Golden Triangle Regional Airport
KGTR : now visible

Airfield :











YOU CAN JOIN US ON...

 
LOGIN :

Register | Disclaimer

   EN    FR    IT 

 









Legend :    VFR   Marginal VFR   IFR   Intensive IFR   Very Intensive IFR
Visi :
Ceiling :
>= 8 km
>= 3000ft
5 to 8 km
1000 to 3000 ft
1500m to 5 km
500 to 1000 ft
800 to 1500m
200 to 500 ft
< 800m
< 200 ft
Symbols :   Thunderstorms  Fog  Heavy snow  Heavy precipitations  Wind > 20 kt







- Airport Elevation : 264 ft


KGTR - Golden Triangle Regional

CURRENT METAR :
  • 191240Z 31008G15KT 4SM -RA BR OVC008 09/09 A2965 RMK AO2 RAB32 CIG 005V014 PNO $

EXPIRED METARs :
  • 191156Z 31008G16KT 5SM BR OVC010 09/09 A2964 RMK AO2 RAE03 CIG 007V015 SLP039 6//// 7//// T00940089 10167 20094 51018 PNO $
  • 191056Z 30010G16KT 10SM -RA SCT006 OVC012 10/09 A2962 RMK AO2 RAB39 SLP033 T01000089 PNO $
  • 191041Z AUTO 30006G15KT 5SM -RA BR BKN008 OVC014 10/09 A2961 RMK AO2 RAB39 CIG 006V013 PNO $
  • 190956Z AUTO 30010G15KT 10SM OVC010 11/09 A2961 RMK AO2 CIG 008V014 SLP027 T01060089 PNO $

TAF KGTR
Valid from the 19 at 12:00 until the 20 at 12:00 UTC


191120Z 1912/2012 30014G23KT P6SM VCSH BKN007 OVC015
FM191800 32015G23KT P6SM -SHRA BKN015 BKN025
FM200100 30009KT P6SM SCT050 BKN100
KZME FIR / North America



MET'MAP, your aeronautical weather chart ! - Copyright ORBIFLY December 2007 - Disclaimer

ORBIFLY MET'MAP TEAM :

Programming & Development : Alexandra Zaïnal
Concept & Development : Baudouin d'Aumeries
Co-Development & Prog : Marc-Olivier Méhu
Technical & hardware support : Manuel Goepfert

Contact : metmap@orbifly.com




SOURCES & CREDITS :

   NOAA       Earth
Advisory